Neptune Beach, FL

22:04 EDT le 29 mai 2015 (GMT -0400)
Atlantic Beach, Florida | | Change Station
CLOSE
Current Station
Stations météorologiques personnelles
Location: Atlantic Beach, FL
Altitude: 12 ft
Stations météo à proximité

Alt. 12 ft 30.33 °N, 81.40 °W | Updated 10 minutes ago

Partiellement nuageux
Partiellement nuageux
77.0 ° F
Paraît 79 ° F
N
3.7
Vent Variable Vent de Est

Aujourd'hui
Haut(e) -- | Bas -- ° F
--% Risque de précip.
Hier
Haut(e) -- | Bas -- ° F
Precip. -- pouce
6:25 AM 8:21 PM
Lune gibbeuse croissante, 87% visible
Pression 30.12 pouce
Visibilité 10.0 Miles terrestres
Nuages Ciel dégagé
indice de chaleur 79 ° F
Point de rosée 70 ° F
Humidité 80%
Précipitations 0.00 pouce
Profondeur de la couche neigeuse Non disponible.
UV 0 sur 12
Pollen 4.30 sur 12
Qualité de l'air Non disponible.
Flu Activity Sporadic
METAR KNRB 300152Z AUTO 06010KT 10SM CLR 25/20 A3012 RMK AO2 SLP199 T02500200 PWINO $

More Conditions Fewer Conditions

Pression 30.12 pouce
Visibilité 10.0 Miles terrestres
Nuages Ciel dégagé
indice de chaleur 79 ° F
Point de rosée 70 ° F
Humidité 80%
Précipitations 0.00 pouce
Profondeur de la couche neigeuse Non disponible.
UV 0 sur 12
Pollen 4.30 sur 12
Qualité de l'air Non disponible.
Flu Activity Sporadic
METAR KNRB 300152Z AUTO 06010KT 10SM CLR 25/20 A3012 RMK AO2 SLP199 T02500200 PWINO $

More Conditions Fewer Conditions

10-Day Weather Forecast

Almanac

Astronomie

May. 29, 2015 Lever Coucher
Temps réel
Crépuscule civil
Crépuscule nautique
Crépuscule astronomique
Lune
Durée de lumière visible
Longueur du jour
Tomorrow will be .
, % of the Moon is Illuminated

Extrêmes aujourd'hui

State Highs State Lows

Community

WunderPhotos

Upload Photos

1,825,415 Photos téléchargées !

WunderBlogs® & News

Nearby

Qualité de l'air

  Qualité de l'air Indice de la qualité de l'air Polluant
Not available.

Épaisseur de neige

Station Depth Altitude

Activité sismique

Ville Distance Mag. Time & Date
Minimum magnitude displayed is 2.5.

Températures des eaux côtières

Lieu Température

Stations

Stations météo à proximité

Emplacement de la station Température Refroidissement éolien Point de rosée Humidité Vent Precip. Alt. Mise à jour Type